Time;durP1;ratioP1;P1;durP2;ratioP2;P2;SDS_P1;SDS_P2;PMS_P1;PMS_P2;Temp;Humidity;BMP_temperature;BMP_pressure;BME280_temperature;BME280_humidity;BME280_pressure;Samples;Min_cycle;Max_cycle;Signal;HPM_P1;HPM_P2
2022/03/08 00:02:23;;;;;;;20.50;9.52;;;;;;;-0.19;100.00;102215.50;5224317;28;20484;-77
2022/03/08 00:04:53;;;;;;;17.67;8.90;;;;;;;-0.19;100.00;102215.50;5228400;28;20031;-77
2022/03/08 00:07:24;;;;;;;23.85;9.57;;;;;;;-0.22;100.00;102219.13;5228340;28;20017;-77
2022/03/08 00:09:55;;;;;;;18.58;8.57;;;;;;;-0.24;100.00;102226.25;5229057;28;20503;-77
2022/03/08 00:12:25;;;;;;;22.17;9.95;;;;;;;-0.29;100.00;102226.44;5228649;28;20473;-77
2022/03/08 00:14:56;;;;;;;17.15;8.27;;;;;;;-0.32;100.00;102229.19;5226665;28;20035;-77
2022/03/08 00:17:26;;;;;;;17.25;9.05;;;;;;;-0.38;100.00;102231.22;5228569;28;20024;-77
2022/03/08 00:19:57;;;;;;;23.42;8.70;;;;;;;-0.44;100.00;102234.97;5227307;28;20032;-77
2022/03/08 00:22:27;;;;;;;22.95;10.13;;;;;;;-0.48;100.00;102232.50;5228327;28;20480;-77
2022/03/08 00:25:01;;;;;;;16.83;8.68;;;;;;;-0.56;100.00;102227.53;5227773;28;20029;-77
2022/03/08 00:27:32;;;;;;;19.40;9.57;;;;;;;-0.62;100.00;102230.41;5228399;28;20100;-77
2022/03/08 00:30:04;;;;;;;18.30;8.80;;;;;;;-0.68;100.00;102234.16;5228636;28;20108;-77
2022/03/08 00:32:35;;;;;;;19.75;9.25;;;;;;;-0.74;100.00;102230.91;5217180;28;20028;-77
2022/03/08 00:35:06;;;;;;;25.83;9.10;;;;;;;-0.78;100.00;102235.44;5232106;28;20108;-77
2022/03/08 00:37:37;;;;;;;18.95;9.25;;;;;;;-0.82;100.00;102232.06;5226827;28;20037;-77
2022/03/08 00:40:10;;;;;;;20.05;9.05;;;;;;;-0.83;100.00;102226.84;5228229;28;20021;-77
2022/03/08 00:42:41;;;;;;;18.00;8.98;;;;;;;-0.86;100.00;102221.69;5228029;28;20032;-77
2022/03/08 00:45:12;;;;;;;20.23;9.10;;;;;;;-0.90;100.00;102220.97;5227562;28;20028;-77
2022/03/08 00:47:43;;;;;;;21.35;8.85;;;;;;;-0.95;100.00;102216.81;5227932;28;20025;-77
2022/03/08 00:50:17;;;;;;;17.55;8.52;;;;;;;-0.99;100.00;102223.94;5227751;28;20043;-77
2022/03/08 00:52:48;;;;;;;21.30;9.65;;;;;;;-1.01;100.00;102220.50;5227795;28;20021;-77
2022/03/08 00:55:21;;;;;;;21.02;9.60;;;;;;;-1.06;100.00;102217.19;5227452;28;20087;-77
2022/03/08 00:57:53;;;;;;;23.02;9.18;;;;;;;-1.08;100.00;102211.13;5227893;28;20023;-77
2022/03/08 01:00:26;;;;;;;24.10;10.32;;;;;;;-1.09;100.00;102220.81;5227616;28;20058;-77
2022/03/08 01:02:57;;;;;;;26.15;10.30;;;;;;;-1.13;100.00;102207.81;5227867;28;20032;-77
2022/03/08 01:05:29;;;;;;;23.55;9.82;;;;;;;-1.17;100.00;102212.31;5227023;28;20484;-77
2022/03/08 01:08:00;;;;;;;24.45;11.25;;;;;;;-1.22;100.00;102210.78;5227601;28;20021;-77
2022/03/08 01:10:31;;;;;;;26.48;9.85;;;;;;;-1.29;100.00;102206.66;5227502;28;20087;-77
2022/03/08 01:13:03;;;;;;;20.58;9.63;;;;;;;-1.36;100.00;102201.59;5227215;28;20025;-77
2022/03/08 01:15:33;;;;;;;24.90;10.07;;;;;;;-1.40;100.00;102202.66;5225811;28;20028;-77
2022/03/08 01:18:04;;;;;;;19.45;9.32;;;;;;;-1.42;100.00;102207.09;5227886;28;20476;-77
2022/03/08 01:20:34;;;;;;;27.48;11.23;;;;;;;-1.43;100.00;102205.41;5227444;28;20052;-77
2022/03/08 01:23:05;;;;;;;23.40;10.05;;;;;;;-1.51;100.00;102196.06;5227368;28;20029;-77
2022/03/08 01:25:39;;;;;;;25.05;10.13;;;;;;;-1.62;100.00;102189.41;5227453;28;20025;-78
2022/03/08 01:28:10;;;;;;;24.75;10.25;;;;;;;-1.70;100.00;102191.47;5229017;28;20036;-78
2022/03/08 01:30:41;;;;;;;21.98;10.23;;;;;;;-1.76;100.00;102189.03;5230485;28;20029;-78
2022/03/08 01:33:11;;;;;;;18.98;9.13;;;;;;;-1.80;100.00;102194.50;5217398;28;20052;-76
2022/03/08 01:35:42;;;;;;;24.52;9.32;;;;;;;-1.86;100.00;102190.28;5218646;28;20025;-80
2022/03/08 01:38:13;;;;;;;23.02;9.48;;;;;;;-1.86;100.00;102190.28;5229204;28;20074;-77
2022/03/08 01:40:44;;;;;;;23.55;9.45;;;;;;;-1.81;100.00;102193.59;5227294;28;20472;-78
2022/03/08 01:43:14;;;;;;;22.98;9.90;;;;;;;-1.80;100.00;102190.09;5227051;28;20020;-77
2022/03/08 01:45:45;;;;;;;25.25;9.70;;;;;;;-1.82;100.00;102187.47;5226483;28;20522;-79
2022/03/08 01:48:15;;;;;;;24.90;10.38;;;;;;;-1.85;100.00;102186.75;5226796;28;20029;-78
2022/03/08 01:50:47;;;;;;;21.38;9.85;;;;;;;-1.91;100.00;102184.31;5226544;28;20065;-78
2022/03/08 01:53:17;;;;;;;24.15;10.15;;;;;;;-1.95;100.00;102175.69;5226845;28;20021;-78
2022/03/08 01:55:50;;;;;;;28.67;10.40;;;;;;;-1.98;100.00;102174.94;5226112;28;20078;-78
2022/03/08 01:58:20;;;;;;;22.25;9.73;;;;;;;-2.05;100.00;102174.28;5226782;28;20024;-78
2022/03/08 02:00:51;;;;;;;26.70;10.90;;;;;;;-2.17;100.00;102175.56;5226574;28;20025;-78
2022/03/08 02:03:21;;;;;;;24.70;10.63;;;;;;;-2.27;100.00;102166.25;5227586;28;20468;-79
2022/03/08 02:05:52;;;;;;;27.35;11.05;;;;;;;-2.39;100.00;102164.91;5226313;28;20079;-78
2022/03/08 02:08:22;;;;;;;22.70;10.23;;;;;;;-2.50;100.00;102158.31;5226638;28;20052;-78
2022/03/08 02:10:53;;;;;;;25.60;10.70;;;;;;;-2.55;100.00;102163.72;5227230;28;20469;-78
2022/03/08 02:13:26;;;;;;;23.10;10.57;;;;;;;-2.54;100.00;102159.31;5226465;28;20033;-78
2022/03/08 02:15:57;;;;;;;27.02;10.25;;;;;;;-2.50;100.00;102156.53;5225851;28;20040;-78
2022/03/08 02:18:28;;;;;;;23.52;10.30;;;;;;;-2.38;100.00;102158.75;5226605;28;20380;-78
2022/03/08 02:21:14;;;;;;;22.45;9.68;;;;;;;-2.37;100.00;102146.44;5226262;28;20128;-78
2022/03/08 02:23:44;;;;;;;24.77;10.48;;;;;;;-2.41;100.00;102150.97;5226147;28;20492;-78
2022/03/08 02:26:15;;;;;;;27.15;10.25;;;;;;;-2.50;100.00;102150.41;5225128;28;20060;-78
2022/03/08 02:28:45;;;;;;;26.83;10.95;;;;;;;-2.59;100.00;102146.31;5226372;28;20020;-78
2022/03/08 02:31:17;;;;;;;24.77;12.23;;;;;;;-2.70;100.00;102140.56;5225156;28;20037;-77
2022/03/08 02:33:47;;;;;;;26.15;11.18;;;;;;;-2.80;100.00;102147.03;5219001;28;20510;-77
2022/03/08 02:36:18;;;;;;;27.25;11.48;;;;;;;-2.88;100.00;102139.38;5214511;28;20056;-77
2022/03/08 02:38:50;;;;;;;24.15;10.20;;;;;;;-2.89;100.00;102138.50;5225999;28;20079;-77
2022/03/08 02:41:20;;;;;;;27.00;10.98;;;;;;;-2.83;100.00;102139.22;5225787;28;20033;-77
2022/03/08 02:43:51;;;;;;;22.80;10.27;;;;;;;-2.78;100.00;102134.69;5226014;28;20537;-77
2022/03/08 02:46:22;;;;;;;23.92;10.65;;;;;;;-2.76;100.00;102138.09;5223993;28;20257;-77
2022/03/08 02:48:52;;;;;;;24.63;11.00;;;;;;;-2.76;100.00;102138.09;5225545;28;20025;-77
2022/03/08 02:51:23;;;;;;;26.30;10.50;;;;;;;-2.77;100.00;102129.38;5224394;28;20099;-78
2022/03/08 02:53:53;;;;;;;24.55;11.02;;;;;;;-2.79;100.00;102133.84;5225843;28;20105;-77
2022/03/08 02:56:24;;;;;;;25.85;10.93;;;;;;;-2.84;100.00;102122.63;5225036;28;20485;-78
2022/03/08 02:58:56;;;;;;;26.88;11.50;;;;;;;-2.90;100.00;102123.66;5225656;28;20103;-78
2022/03/08 03:01:27;;;;;;;29.50;10.88;;;;;;;-2.94;100.00;102119.41;5225087;28;20112;-78
2022/03/08 03:03:58;;;;;;;25.23;10.73;;;;;;;-2.97;100.00;102119.50;5225617;28;20031;-77
2022/03/08 03:06:28;;;;;;;26.33;10.50;;;;;;;-3.00;100.00;102113.50;5225229;28;20029;-77
2022/03/08 03:08:59;;;;;;;24.58;11.57;;;;;;;-3.04;100.00;102101.38;5225531;28;20091;-77
2022/03/08 03:11:30;;;;;;;29.52;11.30;;;;;;;-3.10;100.00;102106.84;5225373;28;20064;-78
2022/03/08 03:14:01;;;;;;;26.33;11.10;;;;;;;-3.17;100.00;102109.63;5225108;28;20021;-77
2022/03/08 03:16:32;;;;;;;29.95;11.80;;;;;;;-3.22;100.00;102102.81;5224674;28;20047;-77
2022/03/08 03:19:03;;;;;;;22.98;10.60;;;;;;;-3.26;100.00;102096.81;5225148;28;20025;-77
2022/03/08 03:21:33;;;;;;;21.65;10.90;;;;;;;-3.26;100.00;102094.19;5225581;28;20055;-77
2022/03/08 03:24:04;;;;;;;25.55;10.40;;;;;;;-3.19;100.00;102086.97;5225883;28;20037;-78
2022/03/08 03:26:35;;;;;;;29.92;11.77;;;;;;;-3.13;100.00;102084.16;5225080;28;20028;-77
2022/03/08 03:29:05;;;;;;;23.75;11.52;;;;;;;-3.06;100.00;102077.81;5225701;28;20024;-77
2022/03/08 03:31:36;;;;;;;26.80;11.00;;;;;;;-2.96;100.00;102078.34;5221014;28;20393;-77
2022/03/08 03:34:06;;;;;;;27.10;11.25;;;;;;;-2.96;100.00;102078.34;5221321;28;20024;-78
2022/03/08 03:36:37;;;;;;;27.33;12.07;;;;;;;-2.94;100.00;102076.53;5211576;28;20086;-78
2022/03/08 03:39:07;;;;;;;30.38;11.23;;;;;;;-3.02;100.00;102075.94;5224003;28;20035;-77
2022/03/08 03:41:38;;;;;;;29.55;11.80;;;;;;;-3.13;100.00;102077.13;5224967;28;20025;-77
2022/03/08 03:44:08;;;;;;;28.17;12.15;;;;;;;-3.23;100.00;102070.44;5224542;28;20029;-78
2022/03/08 03:46:39;;;;;;;27.65;11.57;;;;;;;-3.26;100.00;102067.94;5225092;28;20017;-77
2022/03/08 03:49:09;;;;;;;27.23;11.48;;;;;;;-3.22;100.00;102060.81;5224604;28;20031;-77
2022/03/08 03:51:40;;;;;;;28.30;12.15;;;;;;;-3.20;100.00;102059.00;5224714;28;20028;-77
2022/03/08 03:54:11;;;;;;;26.85;12.48;;;;;;;-3.18;100.00;102062.44;5224231;28;20029;-77
2022/03/08 03:56:41;;;;;;;32.15;12.07;;;;;;;-3.18;100.00;102050.16;5224946;28;20628;-77
2022/03/08 03:59:12;;;;;;;29.45;11.75;;;;;;;-3.18;100.00;102054.56;5224609;28;20036;-77
2022/03/08 04:01:42;;;;;;;31.65;12.75;;;;;;;-3.18;100.00;102049.31;5224568;28;20017;-77
2022/03/08 04:04:13;;;;;;;29.33;11.90;;;;;;;-3.18;100.00;102052.78;5224394;28;20032;-78
2022/03/08 04:06:43;;;;;;;28.40;11.80;;;;;;;-3.13;100.00;102047.41;5224569;28;20018;-77
2022/03/08 04:09:14;;;;;;;32.08;12.23;;;;;;;-3.08;100.00;102044.63;5224853;28;20044;-77
2022/03/08 04:11:44;;;;;;;31.88;11.95;;;;;;;-3.04;100.00;102039.22;5224791;28;20040;-77
2022/03/08 04:14:15;;;;;;;28.73;12.85;;;;;;;-3.04;100.00;102039.22;5224023;28;20031;-78
2022/03/08 04:16:45;;;;;;;29.38;11.70;;;;;;;-3.07;100.00;102041.09;5224549;28;20120;-77
2022/03/08 04:19:16;;;;;;;25.15;11.13;;;;;;;-3.09;100.00;102041.16;5224525;28;20124;-77
2022/03/08 04:21:46;;;;;;;25.92;11.00;;;;;;;-2.98;100.00;102043.41;5224506;28;20053;-77
2022/03/08 04:24:17;;;;;;;25.83;10.65;;;;;;;-2.94;100.00;102040.63;5223981;28;20045;-77
2022/03/08 04:26:47;;;;;;;23.40;11.07;;;;;;;-2.96;100.00;102042.47;5224146;28;20032;-77
2022/03/08 04:29:17;;;;;;;28.75;11.90;;;;;;;-3.01;100.00;102049.63;5224442;28;20079;-77
2022/03/08 04:31:48;;;;;;;26.13;11.27;;;;;;;-3.06;100.00;102048.03;5218589;28;20025;-77
2022/03/08 04:34:19;;;;;;;25.85;11.30;;;;;;;-3.11;100.00;102048.22;5220607;28;20096;-78
2022/03/08 04:36:49;;;;;;;29.35;11.65;;;;;;;-3.14;100.00;102049.16;5213387;28;20108;-78
2022/03/08 04:39:20;;;;;;;30.25;11.65;;;;;;;-3.10;100.00;102039.44;5223986;28;20017;-78
2022/03/08 04:41:50;;;;;;;24.85;10.60;;;;;;;-3.09;100.00;102041.16;5224388;28;20025;-77
2022/03/08 04:44:21;;;;;;;31.58;12.35;;;;;;;-3.09;100.00;102045.53;5223705;28;20558;-77
2022/03/08 04:46:51;;;;;;;27.77;11.77;;;;;;;-3.10;100.00;102041.19;5224378;28;20025;-77
2022/03/08 04:49:22;;;;;;;30.35;11.73;;;;;;;-3.11;100.00;102040.34;5225853;28;20109;-78
2022/03/08 04:51:52;;;;;;;29.25;10.88;;;;;;;-3.10;100.00;102033.31;5227781;28;20025;-78
2022/03/08 04:54:23;;;;;;;32.42;11.30;;;;;;;-3.07;100.00;102026.19;5226165;28;20507;-77
2022/03/08 04:56:53;;;;;;;22.42;10.07;;;;;;;-3.04;100.00;102023.47;5228024;28;20036;-77
2022/03/08 04:59:24;;;;;;;21.90;9.45;;;;;;;-3.00;100.00;102022.47;5227852;28;20032;-77
2022/03/08 05:01:54;;;;;;;29.10;10.63;;;;;;;-2.96;100.00;102026.72;5227657;28;20484;-77
2022/03/08 05:04:25;;;;;;;23.77;10.48;;;;;;;-2.96;100.00;102031.97;5227003;28;20474;-77
2022/03/08 05:06:55;;;;;;;26.83;10.95;;;;;;;-2.92;100.00;102027.44;5227485;28;20096;-77
2022/03/08 05:09:26;;;;;;;25.77;9.95;;;;;;;-2.86;100.00;102035.16;5227476;28;20052;-78
2022/03/08 05:11:58;;;;;;;19.73;8.55;;;;;;;-2.73;100.00;102040.84;5227915;28;20068;-77
2022/03/08 05:14:28;;;;;;;23.08;9.73;;;;;;;-2.74;100.00;102036.50;5227439;28;20025;-77
2022/03/08 05:16:58;;;;;;;26.17;10.13;;;;;;;-2.73;100.00;102033.81;5227327;28;20082;-77
2022/03/08 05:19:29;;;;;;;25.00;10.50;;;;;;;-2.77;100.00;102024.31;5227565;28;20043;-77
2022/03/08 05:21:59;;;;;;;22.77;10.18;;;;;;;-2.80;100.00;102028.81;5227369;28;20052;-77
2022/03/08 05:24:30;;;;;;;27.50;10.63;;;;;;;-2.84;100.00;102029.84;5226890;28;20017;-77
2022/03/08 05:27:01;;;;;;;20.77;9.13;;;;;;;-2.86;100.00;102029.91;5227648;28;20104;-76
2022/03/08 05:29:31;;;;;;;23.90;10.50;;;;;;;-2.90;100.00;102031.75;5226957;28;20139;-77
2022/03/08 05:32:02;;;;;;;25.40;10.45;;;;;;;-2.95;100.00;102019.69;5219447;28;20040;-77
2022/03/08 05:34:32;;;;;;;31.83;10.57;;;;;;;-2.98;100.00;102019.78;5223299;28;20031;-78
2022/03/08 05:37:03;;;;;;;30.92;11.38;;;;;;;-3.01;100.00;102023.38;5217795;28;20074;-77
2022/03/08 05:39:34;;;;;;;24.85;10.82;;;;;;;-3.08;100.00;102024.47;5226986;28;20116;-77
2022/03/08 05:42:05;;;;;;;26.02;10.75;;;;;;;-3.13;100.00;102022.00;5227279;28;20029;-77
2022/03/08 05:44:36;;;;;;;27.58;11.20;;;;;;;-3.17;100.00;102017.75;5225236;28;20017;-77
2022/03/08 05:47:06;;;;;;;27.02;10.68;;;;;;;-3.17;100.00;102016.91;5226936;28;20426;-77
2022/03/08 05:49:37;;;;;;;23.98;10.75;;;;;;;-3.18;100.00;102010.78;5226788;28;20079;-77
2022/03/08 05:52:07;;;;;;;29.25;11.38;;;;;;;-3.21;100.00;102012.69;5226467;28;20021;-77
2022/03/08 05:54:38;;;;;;;30.88;12.00;;;;;;;-3.27;100.00;102008.47;5227406;28;20106;-79
2022/03/08 05:57:08;;;;;;;24.88;11.52;;;;;;;-3.33;100.00;102007.81;5227264;28;20438;-79
2022/03/08 05:59:39;;;;;;;26.55;10.70;;;;;;;-3.42;100.00;102004.56;5233304;28;20384;-81
2022/03/08 06:02:09;;;;;;;25.48;10.95;;;;;;;-3.46;100.00;102002.97;5226393;28;20083;-76
2022/03/08 06:04:39;;;;;;;28.48;11.65;;;;;;;-3.50;100.00;102003.09;5225870;28;20062;-77
2022/03/08 06:07:10;;;;;;;27.90;11.02;;;;;;;-3.52;100.00;101999.66;5241916;28;20099;-77
2022/03/08 06:09:41;;;;;;;36.60;12.90;;;;;;;-3.56;100.00;102005.94;5226960;28;20076;-80
2022/03/08 06:12:11;;;;;;;39.10;12.57;;;;;;;-3.59;100.00;102012.13;5226904;28;20391;-80
2022/03/08 06:14:42;;;;;;;30.60;11.82;;;;;;;-3.56;100.00;102001.53;5227003;28;20052;-82
2022/03/08 06:17:12;;;;;;;29.52;12.05;;;;;;;-3.46;100.00;101996.84;5227183;28;20549;-79
2022/03/08 06:19:43;;;;;;;28.98;10.98;;;;;;;-3.40;100.00;101999.28;5226363;28;20427;-77
2022/03/08 06:22:13;;;;;;;30.05;11.27;;;;;;;-3.33;100.00;102007.81;5226285;28;20057;-77
2022/03/08 06:24:44;;;;;;;41.88;12.23;;;;;;;-3.26;100.00;102007.56;5226026;28;20020;-79
2022/03/08 06:27:14;;;;;;;30.05;11.80;;;;;;;-3.14;100.00;102009.78;5226192;28;20025;-77
2022/03/08 06:29:45;;;;;;;25.80;11.38;;;;;;;-3.04;100.00;102007.72;5224968;28;20033;-75
2022/03/08 06:32:15;;;;;;;23.13;10.70;;;;;;;-2.90;100.00;102000.25;5226261;28;20024;-74
2022/03/08 06:34:46;;;;;;;26.02;11.95;;;;;;;-2.78;100.00;102001.59;5224118;28;20033;-75
2022/03/08 06:37:18;;;;;;;26.38;11.68;;;;;;;-2.69;100.00;102003.03;5217806;28;20104;-75
2022/03/08 06:39:49;;;;;;;24.60;11.38;;;;;;;-2.54;100.00;102013.03;5222738;28;20396;-77
2022/03/08 06:42:19;;;;;;;26.70;11.52;;;;;;;-2.24;100.00;102012.84;5221478;28;20029;-76
2022/03/08 06:44:50;;;;;;;22.25;11.35;;;;;;;-1.99;100.00;102007.53;5223997;28;20051;-77
2022/03/08 06:47:21;;;;;;;26.17;10.68;;;;;;;-1.76;100.00;102017.16;5224223;28;20028;-77
2022/03/08 06:49:51;;;;;;;23.27;10.52;;;;;;;-1.49;100.00;102004.72;5224408;28;20427;-77
2022/03/08 06:52:22;;;;;;;30.50;11.82;;;;;;;-1.20;100.00;102011.47;5223926;28;20114;-76
2022/03/08 06:54:52;;;;;;;28.42;12.07;;;;;;;-0.88;100.00;102012.75;5222691;28;20484;-77
2022/03/08 06:57:24;;;;;;;20.65;10.35;;;;;;;-0.57;100.00;102012.31;5224115;28;20118;-77
2022/03/08 06:59:54;;;;;;;22.00;10.73;;;;;;;-0.16;100.00;102017.53;5223049;28;20028;-76
2022/03/08 07:02:26;;;;;;;25.15;11.50;;;;;;;0.30;100.00;102015.44;5223997;28;20496;-77
2022/03/08 07:04:56;;;;;;;24.27;10.75;;;;;;;0.78;100.00;102013.09;5223544;28;20392;-76
2022/03/08 07:07:26;;;;;;;23.92;11.52;;;;;;;1.16;100.00;102017.44;5223647;28;20293;-77
2022/03/08 07:09:57;;;;;;;23.38;10.82;;;;;;;1.29;100.00;102013.22;5224104;28;20061;-76
2022/03/08 07:12:27;;;;;;;22.48;10.70;;;;;;;1.48;100.00;102015.78;5222119;28;20082;-77
2022/03/08 07:14:58;;;;;;;18.90;10.77;;;;;;;1.77;100.00;102007.19;5223495;28;20021;-77
2022/03/08 07:17:28;;;;;;;24.17;10.95;;;;;;;2.10;100.00;102014.22;5224045;28;20035;-77
2022/03/08 07:19:59;;;;;;;24.25;10.40;;;;;;;2.41;100.00;102012.53;5223784;28;20033;-77
2022/03/08 07:22:30;;;;;;;24.05;10.95;;;;;;;2.81;100.00;102013.81;5223791;28;20032;-77
2022/03/08 07:25:00;;;;;;;16.75;10.18;;;;;;;3.06;100.00;102005.28;5222179;28;20040;-77
2022/03/08 07:27:31;;;;;;;25.27;11.13;;;;;;;3.40;100.00;102014.78;5222426;28;20029;-77
2022/03/08 07:30:04;;;;;;;21.27;10.80;;;;;;;4.01;100.00;102024.31;5224433;28;20090;-77
2022/03/08 07:32:35;;;;;;;17.60;10.05;;;;;;;4.19;100.00;102026.78;5213444;28;20437;-82
2022/03/08 07:35:06;;;;;;;20.88;10.98;;;;;;;4.52;100.00;102022.00;5219622;28;20049;-78
2022/03/08 07:37:38;;;;;;;17.50;10.52;;;;;;;4.30;100.00;102035.78;5220383;28;20024;-78
2022/03/08 07:40:09;;;;;;;18.98;9.65;;;;;;;4.45;100.00;102027.78;5225026;28;20023;-81
2022/03/08 07:42:39;;;;;;;20.63;10.40;;;;;;;4.47;100.00;102042.69;5225173;28;20032;-81
2022/03/08 07:45:10;;;;;;;21.23;10.00;;;;;;;4.72;100.00;102036.66;5226286;28;20005;-81
2022/03/08 07:47:40;;;;;;;24.33;10.80;;;;;;;4.69;100.00;102042.16;5236137;28;20074;-81
2022/03/08 07:50:11;;;;;;;18.88;9.82;;;;;;;4.87;95.24;102035.66;5223478;28;20021;-81
2022/03/08 07:52:42;;;;;;;20.20;9.93;;;;;;;4.93;94.67;102045.88;5224109;28;20055;-80
2022/03/08 07:55:12;;;;;;;15.80;9.25;;;;;;;5.03;93.11;102054.13;5223917;28;20021;-81
2022/03/08 07:57:43;;;;;;;20.08;9.98;;;;;;;5.30;91.72;102058.56;5225294;28;20024;-81
2022/03/08 08:00:14;;;;;;;13.75;8.32;;;;;;;5.19;87.04;102054.81;5207119;28;20043;-81
2022/03/08 08:02:44;;;;;;;18.55;8.88;;;;;;;5.30;87.00;102058.56;5223809;28;20028;-81
2022/03/08 08:05:15;;;;;;;17.88;9.25;;;;;;;5.50;85.28;102058.06;5222862;28;20064;-82
2022/03/08 08:07:45;;;;;;;17.80;9.43;;;;;;;5.68;85.05;102053.31;5223732;28;20105;-82
2022/03/08 08:10:16;;;;;;;15.40;8.77;;;;;;;5.78;80.94;102059.72;5222540;28;20440;-76
2022/03/08 08:12:47;;;;;;;16.13;8.85;;;;;;;5.78;80.80;102059.72;5223555;28;20075;-77
2022/03/08 08:15:17;;;;;;;12.93;8.38;;;;;;;5.78;78.16;102059.72;5223169;28;20021;-77
2022/03/08 08:17:48;;;;;;;15.93;8.70;;;;;;;6.11;77.57;102058.34;5222079;28;20427;-77
2022/03/08 08:20:20;;;;;;;14.43;8.40;;;;;;;6.24;83.26;102053.84;5222940;28;20409;-77
2022/03/08 08:22:50;;;;;;;14.95;8.73;;;;;;;6.38;75.97;102052.88;5223227;28;20037;-77
2022/03/08 08:25:21;;;;;;;17.48;8.90;;;;;;;6.46;72.57;102050.50;5225638;28;20029;-77
2022/03/08 08:27:51;;;;;;;15.02;8.35;;;;;;;6.58;73.20;102054.13;5229397;28;20032;-78
2022/03/08 08:30:22;;;;;;;18.20;9.38;;;;;;;6.81;72.25;102049.75;5228185;28;20063;-78
2022/03/08 08:32:52;;;;;;;16.88;8.40;;;;;;;6.93;67.00;102057.72;5216713;28;20119;-79
2022/03/08 08:35:23;;;;;;;17.00;8.70;;;;;;;6.99;64.89;102048.41;5221124;28;20709;-79
2022/03/08 08:37:53;;;;;;;18.30;8.90;;;;;;;6.88;64.92;102051.03;5209158;28;20021;-79
2022/03/08 08:40:24;;;;;;;15.57;9.18;;;;;;;6.92;65.31;102047.16;5229975;28;20082;-79
2022/03/08 08:42:54;;;;;;;14.10;8.00;;;;;;;7.00;65.81;102045.63;5228633;28;20040;-79
2022/03/08 08:45:25;;;;;;;13.90;8.23;;;;;;;7.17;63.76;102040.84;5229945;28;20230;-80
2022/03/08 08:47:55;;;;;;;17.45;8.18;;;;;;;7.30;61.66;102041.63;5229833;28;20575;-80
2022/03/08 08:50:26;;;;;;;12.60;8.23;;;;;;;7.21;64.27;102042.31;5228562;28;20419;-77
2022/03/08 08:52:56;;;;;;;13.00;7.47;;;;;;;7.47;64.29;102037.66;5227330;28;20036;-77
2022/03/08 08:55:27;;;;;;;15.30;7.78;;;;;;;7.68;60.29;102040.50;5225886;28;20021;-78
2022/03/08 08:57:57;;;;;;;20.70;11.00;;;;;;;7.70;59.98;102030.56;5226805;28;20132;-78
2022/03/08 09:00:28;;;;;;;14.48;8.02;;;;;;;7.74;63.19;102040.06;5226408;28;20170;-77
2022/03/08 09:02:58;;;;;;;15.25;7.55;;;;;;;7.32;60.35;102033.50;5225395;28;20104;-77
2022/03/08 09:05:29;;;;;;;14.70;7.20;;;;;;;7.06;63.54;102032.78;5225800;28;20442;-77
2022/03/08 09:07:59;;;;;;;14.55;7.35;;;;;;;7.34;62.14;102032.44;5226237;28;20029;-77
2022/03/08 09:10:30;;;;;;;14.07;7.05;;;;;;;8.10;59.61;102033.66;5226285;28;20052;-78
2022/03/08 09:13:00;;;;;;;11.07;7.10;;;;;;;7.74;59.93;102035.56;5226450;28;20104;-77
2022/03/08 09:15:31;;;;;;;10.00;6.68;;;;;;;7.77;57.26;102029.13;5225758;28;20025;-77
2022/03/08 09:18:05;;;;;;;12.70;7.07;;;;;;;8.09;56.22;102023.94;5226196;28;20051;-77
2022/03/08 09:20:36;;;;;;;10.93;5.95;;;;;;;8.61;52.66;102018.91;5225669;28;20523;-76
2022/03/08 09:23:08;;;;;;;15.80;7.35;;;;;;;8.25;57.75;102011.03;5226298;28;20060;-77
2022/03/08 09:25:39;;;;;;;14.75;7.05;;;;;;;8.43;54.30;102013.22;5226176;28;20029;-77
2022/03/08 09:28:09;;;;;;;9.35;6.63;;;;;;;8.11;53.10;102011.28;5226045;28;20483;-77
2022/03/08 09:30:42;;;;;;;12.90;6.35;;;;;;;7.79;54.64;102011.16;5227165;28;20028;-77
2022/03/08 09:33:13;;;;;;;11.73;6.57;;;;;;;7.85;55.32;102010.69;5214718;28;20033;-77
2022/03/08 09:35:43;;;;;;;12.27;6.75;;;;;;;7.84;54.17;102008.97;5215032;28;20404;-77
2022/03/08 09:38:14;;;;;;;13.15;6.78;;;;;;;8.22;55.41;102002.41;5224696;28;20101;-77
2022/03/08 09:40:45;;;;;;;15.82;7.57;;;;;;;8.17;54.04;102000.09;5224427;28;20037;-77
2022/03/08 09:43:15;;;;;;;9.85;6.45;;;;;;;8.31;51.09;102007.88;5224846;28;20055;-77
2022/03/08 09:45:46;;;;;;;11.43;6.13;;;;;;;7.90;52.32;102003.16;5224104;28;20028;-75
2022/03/08 09:48:18;;;;;;;11.40;6.70;;;;;;;7.66;53.65;102003.25;5225612;28;20083;-76
2022/03/08 09:50:49;;;;;;;16.52;7.07;;;;;;;7.45;52.11;101999.56;5225337;28;20040;-76
2022/03/08 09:53:20;;;;;;;16.23;6.72;;;;;;;8.12;53.96;102004.97;5225506;28;20028;-76
2022/03/08 09:55:51;;;;;;;12.50;6.38;;;;;;;8.09;53.51;102005.22;5223724;28;20025;-75
2022/03/08 09:58:21;;;;;;;8.98;5.70;;;;;;;8.08;52.54;101995.47;5225403;28;20016;-76
2022/03/08 10:00:55;;;;;;;20.27;7.25;;;;;;;8.23;51.78;101999.63;5223951;28;20033;-76
2022/03/08 10:03:41;;;;;;;12.02;6.70;;;;;;;8.51;55.24;101992.91;5225559;28;20299;-76
2022/03/08 10:06:12;;;;;;;12.18;6.65;;;;;;;8.08;50.93;101991.97;5223429;28;20039;-76
2022/03/08 10:08:43;;;;;;;11.38;5.85;;;;;;;8.19;52.21;101989.31;5225022;28;20587;-75
2022/03/08 10:11:14;;;;;;;9.75;6.07;;;;;;;8.04;50.77;101991.38;5225029;28;20029;-76
2022/03/08 10:13:49;;;;;;;10.85;6.30;;;;;;;7.93;51.15;101989.56;5225301;28;20025;-75
2022/03/08 10:16:24;;;;;;;9.35;5.88;;;;;;;8.02;50.78;101990.63;5224487;28;20028;-76
2022/03/08 10:18:57;;;;;;;14.73;6.03;;;;;;;8.51;51.39;101982.22;5225161;28;20479;-76
2022/03/08 10:21:47;;;;;;;11.43;6.38;;;;;;;8.38;50.18;101992.19;5224820;28;20013;-77
2022/03/08 10:24:36;;;;;;;9.27;5.90;;;;;;;8.52;53.50;101978.56;5224503;28;20059;-76
2022/03/08 10:27:09;;;;;;;9.07;5.80;;;;;;;8.59;49.02;101981.59;5213391;28;20025;-76
2022/03/08 10:29:39;;;;;;;10.30;5.40;;;;;;;8.20;48.29;101982.97;5225025;28;20128;-76
2022/03/08 10:32:36;;;;;;;10.00;6.30;;;;;;;8.23;50.87;101980.03;5215778;28;20545;-76
2022/03/08 10:35:10;;;;;;;8.98;5.50;;;;;;;8.18;51.46;101982.22;5211959;28;20017;-77
2022/03/08 10:37:40;;;;;;;12.02;6.22;;;;;;;7.51;52.33;101986.56;5219917;28;20025;-77
2022/03/08 10:40:12;;;;;;;14.20;5.90;;;;;;;7.29;51.46;101983.03;5224868;28;20052;-79
2022/03/08 10:42:43;;;;;;;9.02;5.43;;;;;;;7.66;53.86;101978.34;5224464;28;20016;-80
2022/03/08 10:45:16;;;;;;;10.43;6.32;;;;;;;7.69;53.81;101970.97;5240183;28;20472;-77
2022/03/08 10:47:51;;;;;;;10.95;6.57;;;;;;;7.44;51.96;101979.19;5224423;28;20025;-77
2022/03/08 10:50:25;;;;;;;11.38;6.22;;;;;;;7.52;53.68;101974.94;5224744;28;20048;-77
2022/03/08 10:52:57;;;;;;;11.73;5.50;;;;;;;7.91;51.78;101970.09;5225089;28;20109;-76
2022/03/08 10:55:29;;;;;;;9.95;5.13;;;;;;;7.97;51.21;101961.59;5224102;28;20507;-77
2022/03/08 10:58:02;;;;;;;8.60;5.38;;;;;;;7.83;49.14;101961.00;5224662;28;20370;-76
2022/03/08 11:00:53;;;;;;;14.40;5.88;;;;;;;7.75;49.55;101953.59;5223861;28;20515;-76
2022/03/08 11:03:25;;;;;;;11.23;5.65;;;;;;;7.85;50.38;101959.06;5225750;28;20020;-77
2022/03/08 11:06:00;;;;;;;9.80;5.63;;;;;;;8.05;50.29;101961.00;5224161;28;20055;-76
2022/03/08 11:08:31;;;;;;;7.87;5.47;;;;;;;7.95;51.20;101963.56;5224148;28;20021;-76
2022/03/08 11:11:02;;;;;;;10.52;6.07;;;;;;;8.07;52.65;101952.84;5223948;28;20040;-76
2022/03/08 11:13:32;;;;;;;13.57;5.53;;;;;;;8.30;51.02;101952.69;5224684;28;20021;-76
2022/03/08 11:16:05;;;;;;;11.68;6.18;;;;;;;8.20;50.01;101951.75;5223471;28;20130;-76
2022/03/08 11:18:36;;;;;;;9.88;5.70;;;;;;;8.27;50.87;101950.25;5224049;28;20025;-77
2022/03/08 11:21:07;;;;;;;8.23;5.30;;;;;;;8.35;53.05;101960.34;5223775;28;20448;-77
2022/03/08 11:23:38;;;;;;;10.52;5.57;;;;;;;8.68;56.46;101956.75;5222881;28;20119;-77
2022/03/08 11:26:12;;;;;;;9.48;5.88;;;;;;;8.45;49.29;101955.13;5223381;28;20032;-77
2022/03/08 11:28:46;;;;;;;13.02;5.70;;;;;;;8.77;48.80;101942.63;5223555;28;20112;-77
2022/03/08 11:31:22;;;;;;;11.27;5.45;;;;;;;9.21;49.10;101951.41;5221997;28;20025;-77